sensor_id;sensor_type;location;lat;lon;timestamp;temperature;humidity
19206;DHT22;59358;52.134;5.596;2022-09-06T00:01:07;21.00;99.90
19206;DHT22;59358;52.134;5.596;2022-09-06T00:03:35;20.90;99.90
19206;DHT22;59358;52.134;5.596;2022-09-06T00:06:08;20.80;99.90
19206;DHT22;59358;52.134;5.596;2022-09-06T00:08:35;20.70;99.90
19206;DHT22;59358;52.134;5.596;2022-09-06T00:11:04;20.70;99.90
19206;DHT22;59358;52.134;5.596;2022-09-06T00:13:31;20.60;99.90
19206;DHT22;59358;52.134;5.596;2022-09-06T00:16:07;20.60;99.90
19206;DHT22;59358;52.134;5.596;2022-09-06T00:18:34;20.60;99.90
19206;DHT22;59358;52.134;5.596;2022-09-06T00:21:01;20.60;99.90
19206;DHT22;59358;52.134;5.596;2022-09-06T00:23:28;20.50;99.90
19206;DHT22;59358;52.134;5.596;2022-09-06T00:26:01;20.40;99.90
19206;DHT22;59358;52.134;5.596;2022-09-06T00:28:29;20.40;99.90
19206;DHT22;59358;52.134;5.596;2022-09-06T00:30:56;20.40;99.90
19206;DHT22;59358;52.134;5.596;2022-09-06T00:33:23;20.30;99.90
19206;DHT22;59358;52.134;5.596;2022-09-06T00:35:57;20.30;99.90
19206;DHT22;59358;52.134;5.596;2022-09-06T00:38:24;20.30;99.90
19206;DHT22;59358;52.134;5.596;2022-09-06T00:40:51;20.30;99.90
19206;DHT22;59358;52.134;5.596;2022-09-06T00:43:18;20.30;99.90
19206;DHT22;59358;52.134;5.596;2022-09-06T00:45:46;20.30;99.90
19206;DHT22;59358;52.134;5.596;2022-09-06T00:48:13;20.30;99.90
19206;DHT22;59358;52.134;5.596;2022-09-06T00:50:40;20.30;99.90
19206;DHT22;59358;52.134;5.596;2022-09-06T00:53:07;20.30;99.90
19206;DHT22;59358;52.134;5.596;2022-09-06T00:55:34;20.20;99.90
19206;DHT22;59358;52.134;5.596;2022-09-06T00:58:01;20.20;99.90
19206;DHT22;59358;52.134;5.596;2022-09-06T01:00:28;20.20;99.90
19206;DHT22;59358;52.134;5.596;2022-09-06T01:02:57;20.20;99.90
19206;DHT22;59358;52.134;5.596;2022-09-06T01:05:33;20.20;99.90
19206;DHT22;59358;52.134;5.596;2022-09-06T01:08:09;20.20;99.90
19206;DHT22;59358;52.134;5.596;2022-09-06T01:10:49;20.20;99.90
19206;DHT22;59358;52.134;5.596;2022-09-06T01:13:27;20.20;99.90
19206;DHT22;59358;52.134;5.596;2022-09-06T01:16:08;20.30;99.90
19206;DHT22;59358;52.134;5.596;2022-09-06T01:18:49;20.30;99.90
19206;DHT22;59358;52.134;5.596;2022-09-06T01:21:33;20.20;99.90
19206;DHT22;59358;52.134;5.596;2022-09-06T01:24:36;20.20;99.90
19206;DHT22;59358;52.134;5.596;2022-09-06T01:27:34;20.20;99.90
19206;DHT22;59358;52.134;5.596;2022-09-06T01:30:08;20.30;99.90
19206;DHT22;59358;52.134;5.596;2022-09-06T01:32:40;20.20;99.90
19206;DHT22;59358;52.134;5.596;2022-09-06T01:35:16;20.20;99.90
19206;DHT22;59358;52.134;5.596;2022-09-06T01:37:47;20.20;99.90
19206;DHT22;59358;52.134;5.596;2022-09-06T01:40:14;20.20;99.90
19206;DHT22;59358;52.134;5.596;2022-09-06T01:42:44;20.10;99.90
19206;DHT22;59358;52.134;5.596;2022-09-06T01:45:14;20.00;99.90
19206;DHT22;59358;52.134;5.596;2022-09-06T01:47:52;19.90;99.90
19206;DHT22;59358;52.134;5.596;2022-09-06T01:50:41;19.90;99.90
19206;DHT22;59358;52.134;5.596;2022-09-06T01:53:20;19.80;99.90
19206;DHT22;59358;52.134;5.596;2022-09-06T01:55:54;19.80;99.90
19206;DHT22;59358;52.134;5.596;2022-09-06T01:58:38;19.80;99.90
19206;DHT22;59358;52.134;5.596;2022-09-06T02:01:15;19.80;99.90
19206;DHT22;59358;52.134;5.596;2022-09-06T02:03:50;19.80;99.90
19206;DHT22;59358;52.134;5.596;2022-09-06T02:06:24;19.80;99.90
19206;DHT22;59358;52.134;5.596;2022-09-06T02:08:54;19.80;99.90
19206;DHT22;59358;52.134;5.596;2022-09-06T02:11:24;19.80;99.90
19206;DHT22;59358;52.134;5.596;2022-09-06T02:13:57;19.70;99.90
19206;DHT22;59358;52.134;5.596;2022-09-06T02:16:27;19.70;99.90
19206;DHT22;59358;52.134;5.596;2022-09-06T02:18:58;19.60;99.90
19206;DHT22;59358;52.134;5.596;2022-09-06T02:21:30;19.50;99.90
19206;DHT22;59358;52.134;5.596;2022-09-06T02:24:00;19.50;99.90
19206;DHT22;59358;52.134;5.596;2022-09-06T02:26:30;19.40;99.90
19206;DHT22;59358;52.134;5.596;2022-09-06T02:29:00;19.40;99.90
19206;DHT22;59358;52.134;5.596;2022-09-06T02:31:30;19.30;99.90
19206;DHT22;59358;52.134;5.596;2022-09-06T02:33:57;19.30;99.90
19206;DHT22;59358;52.134;5.596;2022-09-06T02:36:24;19.30;99.90
19206;DHT22;59358;52.134;5.596;2022-09-06T02:38:53;19.40;99.90
19206;DHT22;59358;52.134;5.596;2022-09-06T02:41:22;19.40;99.90
19206;DHT22;59358;52.134;5.596;2022-09-06T02:43:49;19.40;99.90
19206;DHT22;59358;52.134;5.596;2022-09-06T02:46:18;19.30;99.90
19206;DHT22;59358;52.134;5.596;2022-09-06T02:48:44;19.30;99.90
19206;DHT22;59358;52.134;5.596;2022-09-06T02:51:12;19.10;99.90
19206;DHT22;59358;52.134;5.596;2022-09-06T02:53:39;19.00;99.90
19206;DHT22;59358;52.134;5.596;2022-09-06T02:56:06;19.00;99.90
19206;DHT22;59358;52.134;5.596;2022-09-06T02:58:33;19.00;99.90
19206;DHT22;59358;52.134;5.596;2022-09-06T03:00:59;19.00;99.90
19206;DHT22;59358;52.134;5.596;2022-09-06T03:03:27;18.90;99.90
19206;DHT22;59358;52.134;5.596;2022-09-06T03:05:54;18.90;99.90
19206;DHT22;59358;52.134;5.596;2022-09-06T03:08:22;18.80;99.90
19206;DHT22;59358;52.134;5.596;2022-09-06T03:10:51;18.80;99.90
19206;DHT22;59358;52.134;5.596;2022-09-06T03:13:19;18.80;99.90
19206;DHT22;59358;52.134;5.596;2022-09-06T03:15:49;18.80;99.90
19206;DHT22;59358;52.134;5.596;2022-09-06T03:18:16;18.90;99.90
19206;DHT22;59358;52.134;5.596;2022-09-06T03:20:44;18.90;99.90
19206;DHT22;59358;52.134;5.596;2022-09-06T03:23:11;19.00;99.90
19206;DHT22;59358;52.134;5.596;2022-09-06T03:25:37;19.00;99.90
19206;DHT22;59358;52.134;5.596;2022-09-06T03:28:04;19.00;99.90
19206;DHT22;59358;52.134;5.596;2022-09-06T03:30:31;19.00;99.90
19206;DHT22;59358;52.134;5.596;2022-09-06T03:32:58;19.00;99.90
19206;DHT22;59358;52.134;5.596;2022-09-06T03:35:24;18.90;99.90
19206;DHT22;59358;52.134;5.596;2022-09-06T03:37:53;18.90;99.90
19206;DHT22;59358;52.134;5.596;2022-09-06T03:40:19;18.90;99.90
19206;DHT22;59358;52.134;5.596;2022-09-06T03:42:46;18.90;99.90
19206;DHT22;59358;52.134;5.596;2022-09-06T03:45:13;19.00;99.90
19206;DHT22;59358;52.134;5.596;2022-09-06T03:47:40;18.90;99.90
19206;DHT22;59358;52.134;5.596;2022-09-06T03:50:07;18.90;99.90
19206;DHT22;59358;52.134;5.596;2022-09-06T03:52:35;18.80;99.90
19206;DHT22;59358;52.134;5.596;2022-09-06T03:55:04;18.80;99.90
19206;DHT22;59358;52.134;5.596;2022-09-06T03:57:31;18.80;99.90
19206;DHT22;59358;52.134;5.596;2022-09-06T03:59:57;18.70;99.90
19206;DHT22;59358;52.134;5.596;2022-09-06T04:02:24;18.70;99.90
19206;DHT22;59358;52.134;5.596;2022-09-06T04:04:51;18.70;99.90
19206;DHT22;59358;52.134;5.596;2022-09-06T04:07:20;18.70;99.90
19206;DHT22;59358;52.134;5.596;2022-09-06T04:09:47;18.70;99.90
19206;DHT22;59358;52.134;5.596;2022-09-06T04:12:15;18.80;99.90
19206;DHT22;59358;52.134;5.596;2022-09-06T04:14:42;18.80;99.90
19206;DHT22;59358;52.134;5.596;2022-09-06T04:17:09;18.80;99.90
19206;DHT22;59358;52.134;5.596;2022-09-06T04:19:36;18.80;99.90
19206;DHT22;59358;52.134;5.596;2022-09-06T04:22:03;18.80;99.90
19206;DHT22;59358;52.134;5.596;2022-09-06T04:24:31;18.80;99.90
19206;DHT22;59358;52.134;5.596;2022-09-06T04:26:58;18.80;99.90
19206;DHT22;59358;52.134;5.596;2022-09-06T04:29:26;18.80;99.90
19206;DHT22;59358;52.134;5.596;2022-09-06T04:31:53;18.80;99.90
19206;DHT22;59358;52.134;5.596;2022-09-06T04:34:20;18.80;99.90
19206;DHT22;59358;52.134;5.596;2022-09-06T04:36:47;18.80;99.90
19206;DHT22;59358;52.134;5.596;2022-09-06T04:39:14;18.80;99.90
19206;DHT22;59358;52.134;5.596;2022-09-06T04:41:41;18.80;99.90
19206;DHT22;59358;52.134;5.596;2022-09-06T04:44:07;18.80;99.90
19206;DHT22;59358;52.134;5.596;2022-09-06T04:46:36;18.80;99.90
19206;DHT22;59358;52.134;5.596;2022-09-06T04:49:03;18.80;99.90
19206;DHT22;59358;52.134;5.596;2022-09-06T04:51:29;18.80;99.90
19206;DHT22;59358;52.134;5.596;2022-09-06T04:53:56;18.80;99.90
19206;DHT22;59358;52.134;5.596;2022-09-06T04:56:25;18.80;99.90
19206;DHT22;59358;52.134;5.596;2022-09-06T04:58:53;18.90;99.90
19206;DHT22;59358;52.134;5.596;2022-09-06T05:01:21;18.90;99.90
19206;DHT22;59358;52.134;5.596;2022-09-06T05:03:49;18.80;99.90
19206;DHT22;59358;52.134;5.596;2022-09-06T05:06:19;18.90;99.90
19206;DHT22;59358;52.134;5.596;2022-09-06T05:08:46;19.00;99.90
19206;DHT22;59358;52.134;5.596;2022-09-06T05:11:14;19.00;99.90
19206;DHT22;59358;52.134;5.596;2022-09-06T05:13:41;18.90;99.90
19206;DHT22;59358;52.134;5.596;2022-09-06T05:16:08;18.90;99.90
19206;DHT22;59358;52.134;5.596;2022-09-06T05:18:36;18.90;99.90
19206;DHT22;59358;52.134;5.596;2022-09-06T05:21:05;18.90;99.90
19206;DHT22;59358;52.134;5.596;2022-09-06T05:23:32;18.90;99.90
19206;DHT22;59358;52.134;5.596;2022-09-06T05:25:59;19.00;99.90
19206;DHT22;59358;52.134;5.596;2022-09-06T05:28:29;19.00;99.90
19206;DHT22;59358;52.134;5.596;2022-09-06T05:31:05;18.90;99.90
19206;DHT22;59358;52.134;5.596;2022-09-06T05:33:32;18.90;99.90
19206;DHT22;59358;52.134;5.596;2022-09-06T05:35:58;18.90;99.90
19206;DHT22;59358;52.134;5.596;2022-09-06T05:38:27;18.90;99.90
19206;DHT22;59358;52.134;5.596;2022-09-06T05:40:53;18.80;99.90
19206;DHT22;59358;52.134;5.596;2022-09-06T05:43:20;18.80;99.90
19206;DHT22;59358;52.134;5.596;2022-09-06T05:45:47;18.80;99.90
19206;DHT22;59358;52.134;5.596;2022-09-06T05:48:14;18.80;99.90
19206;DHT22;59358;52.134;5.596;2022-09-06T05:50:41;18.70;99.90
19206;DHT22;59358;52.134;5.596;2022-09-06T05:53:08;18.70;99.90
19206;DHT22;59358;52.134;5.596;2022-09-06T05:55:36;18.70;99.90
19206;DHT22;59358;52.134;5.596;2022-09-06T05:58:03;18.70;99.90
19206;DHT22;59358;52.134;5.596;2022-09-06T06:00:30;18.80;99.90
19206;DHT22;59358;52.134;5.596;2022-09-06T06:02:56;18.90;99.90
19206;DHT22;59358;52.134;5.596;2022-09-06T06:05:23;18.90;99.90
19206;DHT22;59358;52.134;5.596;2022-09-06T06:07:50;18.80;99.90
19206;DHT22;59358;52.134;5.596;2022-09-06T06:10:16;18.90;99.90
19206;DHT22;59358;52.134;5.596;2022-09-06T06:12:45;18.90;99.90
19206;DHT22;59358;52.134;5.596;2022-09-06T06:15:11;18.90;99.90
19206;DHT22;59358;52.134;5.596;2022-09-06T06:17:38;18.90;99.90
19206;DHT22;59358;52.134;5.596;2022-09-06T06:20:06;19.00;99.90
19206;DHT22;59358;52.134;5.596;2022-09-06T06:22:33;19.10;99.90
19206;DHT22;59358;52.134;5.596;2022-09-06T06:25:00;19.10;99.90
19206;DHT22;59358;52.134;5.596;2022-09-06T06:27:27;19.00;99.90
19206;DHT22;59358;52.134;5.596;2022-09-06T06:29:55;18.90;99.90
19206;DHT22;59358;52.134;5.596;2022-09-06T06:32:22;18.90;99.90
19206;DHT22;59358;52.134;5.596;2022-09-06T06:34:49;18.90;99.90
19206;DHT22;59358;52.134;5.596;2022-09-06T06:37:16;19.00;99.90
19206;DHT22;59358;52.134;5.596;2022-09-06T06:39:43;19.10;99.90
19206;DHT22;59358;52.134;5.596;2022-09-06T06:42:10;19.20;99.90
19206;DHT22;59358;52.134;5.596;2022-09-06T06:44:37;19.40;99.90
19206;DHT22;59358;52.134;5.596;2022-09-06T06:47:06;19.40;99.90
19206;DHT22;59358;52.134;5.596;2022-09-06T06:49:33;19.50;99.90
19206;DHT22;59358;52.134;5.596;2022-09-06T06:52:00;19.60;99.90
19206;DHT22;59358;52.134;5.596;2022-09-06T06:54:27;19.70;99.90
19206;DHT22;59358;52.134;5.596;2022-09-06T06:56:55;19.80;99.90
19206;DHT22;59358;52.134;5.596;2022-09-06T06:59:22;19.80;99.90
19206;DHT22;59358;52.134;5.596;2022-09-06T07:01:48;19.80;99.90
19206;DHT22;59358;52.134;5.596;2022-09-06T07:04:16;19.90;99.90
19206;DHT22;59358;52.134;5.596;2022-09-06T07:06:48;20.10;99.90
19206;DHT22;59358;52.134;5.596;2022-09-06T07:09:16;20.30;99.90
19206;DHT22;59358;52.134;5.596;2022-09-06T07:11:44;20.30;99.90
19206;DHT22;59358;52.134;5.596;2022-09-06T07:14:10;20.40;99.90
19206;DHT22;59358;52.134;5.596;2022-09-06T07:16:37;20.50;99.90
19206;DHT22;59358;52.134;5.596;2022-09-06T07:19:04;20.50;99.90
19206;DHT22;59358;52.134;5.596;2022-09-06T07:21:32;20.70;99.90
19206;DHT22;59358;52.134;5.596;2022-09-06T07:23:59;20.70;99.90
19206;DHT22;59358;52.134;5.596;2022-09-06T07:26:27;20.80;99.90
19206;DHT22;59358;52.134;5.596;2022-09-06T07:28:55;20.80;99.90
19206;DHT22;59358;52.134;5.596;2022-09-06T07:31:22;20.90;99.90
19206;DHT22;59358;52.134;5.596;2022-09-06T07:33:49;21.00;99.90
19206;DHT22;59358;52.134;5.596;2022-09-06T07:36:16;21.00;99.90
19206;DHT22;59358;52.134;5.596;2022-09-06T07:38:46;21.20;99.90
19206;DHT22;59358;52.134;5.596;2022-09-06T07:41:14;21.20;99.90
19206;DHT22;59358;52.134;5.596;2022-09-06T07:43:41;21.30;99.90
19206;DHT22;59358;52.134;5.596;2022-09-06T07:46:10;21.40;99.90
19206;DHT22;59358;52.134;5.596;2022-09-06T07:48:39;21.50;99.90
19206;DHT22;59358;52.134;5.596;2022-09-06T07:51:07;21.60;99.90
19206;DHT22;59358;52.134;5.596;2022-09-06T07:53:37;21.70;99.90
19206;DHT22;59358;52.134;5.596;2022-09-06T07:56:07;21.90;99.90
19206;DHT22;59358;52.134;5.596;2022-09-06T07:58:35;22.20;99.90
19206;DHT22;59358;52.134;5.596;2022-09-06T08:01:25;22.30;99.90
19206;DHT22;59358;52.134;5.596;2022-09-06T08:03:52;22.30;99.90
19206;DHT22;59358;52.134;5.596;2022-09-06T08:06:21;22.30;99.90
19206;DHT22;59358;52.134;5.596;2022-09-06T08:08:48;22.40;99.90
19206;DHT22;59358;52.134;5.596;2022-09-06T08:11:17;22.50;99.90
19206;DHT22;59358;52.134;5.596;2022-09-06T08:13:46;22.70;99.90
19206;DHT22;59358;52.134;5.596;2022-09-06T08:16:13;22.80;99.90
19206;DHT22;59358;52.134;5.596;2022-09-06T08:18:41;22.80;99.90
19206;DHT22;59358;52.134;5.596;2022-09-06T08:21:10;22.80;99.90
19206;DHT22;59358;52.134;5.596;2022-09-06T08:23:38;22.90;99.90
19206;DHT22;59358;52.134;5.596;2022-09-06T08:26:07;23.00;99.90
19206;DHT22;59358;52.134;5.596;2022-09-06T08:28:35;23.20;99.90
19206;DHT22;59358;52.134;5.596;2022-09-06T08:31:07;23.30;99.90
19206;DHT22;59358;52.134;5.596;2022-09-06T08:33:34;23.50;99.90
19206;DHT22;59358;52.134;5.596;2022-09-06T08:36:02;23.60;99.90
19206;DHT22;59358;52.134;5.596;2022-09-06T08:38:29;23.70;99.90
19206;DHT22;59358;52.134;5.596;2022-09-06T08:41:06;23.90;99.90
19206;DHT22;59358;52.134;5.596;2022-09-06T08:43:35;24.00;99.90
19206;DHT22;59358;52.134;5.596;2022-09-06T08:46:03;24.10;99.90
19206;DHT22;59358;52.134;5.596;2022-09-06T08:48:32;24.30;99.90
19206;DHT22;59358;52.134;5.596;2022-09-06T08:51:21;24.40;99.90
19206;DHT22;59358;52.134;5.596;2022-09-06T08:53:54;24.40;99.90
19206;DHT22;59358;52.134;5.596;2022-09-06T08:56:30;24.60;99.90
19206;DHT22;59358;52.134;5.596;2022-09-06T08:59:03;24.50;99.90
19206;DHT22;59358;52.134;5.596;2022-09-06T09:01:39;24.50;99.90
19206;DHT22;59358;52.134;5.596;2022-09-06T09:04:12;24.50;99.90
19206;DHT22;59358;52.134;5.596;2022-09-06T09:06:40;24.40;99.90
19206;DHT22;59358;52.134;5.596;2022-09-06T09:09:09;24.70;99.90
19206;DHT22;59358;52.134;5.596;2022-09-06T09:11:41;24.90;99.90
19206;DHT22;59358;52.134;5.596;2022-09-06T09:14:14;24.90;99.90
19206;DHT22;59358;52.134;5.596;2022-09-06T09:16:41;24.60;99.90
19206;DHT22;59358;52.134;5.596;2022-09-06T09:19:08;24.60;99.90
19206;DHT22;59358;52.134;5.596;2022-09-06T09:21:37;24.80;99.90
19206;DHT22;59358;52.134;5.596;2022-09-06T09:24:06;24.90;99.90
19206;DHT22;59358;52.134;5.596;2022-09-06T09:26:37;25.10;99.90
19206;DHT22;59358;52.134;5.596;2022-09-06T09:29:09;25.20;99.90
19206;DHT22;59358;52.134;5.596;2022-09-06T09:31:39;25.50;99.90
19206;DHT22;59358;52.134;5.596;2022-09-06T09:34:10;25.50;99.90
19206;DHT22;59358;52.134;5.596;2022-09-06T09:36:38;25.60;99.90
19206;DHT22;59358;52.134;5.596;2022-09-06T09:39:09;25.50;99.90
19206;DHT22;59358;52.134;5.596;2022-09-06T09:41:39;25.40;99.90
19206;DHT22;59358;52.134;5.596;2022-09-06T09:44:09;25.40;99.90
19206;DHT22;59358;52.134;5.596;2022-09-06T09:46:38;25.40;99.90
19206;DHT22;59358;52.134;5.596;2022-09-06T09:49:08;25.60;99.90
19206;DHT22;59358;52.134;5.596;2022-09-06T09:51:37;25.80;99.90
19206;DHT22;59358;52.134;5.596;2022-09-06T09:54:06;25.90;99.90
19206;DHT22;59358;52.134;5.596;2022-09-06T09:56:36;25.70;99.90
19206;DHT22;59358;52.134;5.596;2022-09-06T09:59:14;25.60;99.90
19206;DHT22;59358;52.134;5.596;2022-09-06T10:01:44;25.60;99.90
19206;DHT22;59358;52.134;5.596;2022-09-06T10:04:17;25.90;99.90
19206;DHT22;59358;52.134;5.596;2022-09-06T10:06:44;26.10;99.90
19206;DHT22;59358;52.134;5.596;2022-09-06T10:09:14;26.20;99.90
19206;DHT22;59358;52.134;5.596;2022-09-06T10:11:51;26.20;99.90
19206;DHT22;59358;52.134;5.596;2022-09-06T10:14:25;25.70;99.90
19206;DHT22;59358;52.134;5.596;2022-09-06T10:16:54;25.40;99.90
19206;DHT22;59358;52.134;5.596;2022-09-06T10:19:22;25.60;99.90
19206;DHT22;59358;52.134;5.596;2022-09-06T10:21:53;25.70;99.90
19206;DHT22;59358;52.134;5.596;2022-09-06T10:24:28;25.90;99.90
19206;DHT22;59358;52.134;5.596;2022-09-06T10:27:00;25.80;99.90
19206;DHT22;59358;52.134;5.596;2022-09-06T10:29:37;26.00;99.90
19206;DHT22;59358;52.134;5.596;2022-09-06T10:32:16;26.20;99.90
19206;DHT22;59358;52.134;5.596;2022-09-06T10:35:01;26.60;99.90
19206;DHT22;59358;52.134;5.596;2022-09-06T10:37:41;26.60;99.90
19206;DHT22;59358;52.134;5.596;2022-09-06T10:40:11;27.00;99.90
19206;DHT22;59358;52.134;5.596;2022-09-06T10:42:44;26.90;99.90
19206;DHT22;59358;52.134;5.596;2022-09-06T10:45:27;27.00;99.90
19206;DHT22;59358;52.134;5.596;2022-09-06T10:47:58;27.10;99.90
19206;DHT22;59358;52.134;5.596;2022-09-06T10:50:36;27.40;99.90
19206;DHT22;59358;52.134;5.596;2022-09-06T10:53:09;27.50;99.90
19206;DHT22;59358;52.134;5.596;2022-09-06T10:55:38;27.50;99.90
19206;DHT22;59358;52.134;5.596;2022-09-06T10:58:08;27.50;99.90
19206;DHT22;59358;52.134;5.596;2022-09-06T11:00:41;27.50;99.90
19206;DHT22;59358;52.134;5.596;2022-09-06T11:03:16;27.80;99.90
19206;DHT22;59358;52.134;5.596;2022-09-06T11:05:48;27.90;99.90
19206;DHT22;59358;52.134;5.596;2022-09-06T11:08:21;28.10;99.90
19206;DHT22;59358;52.134;5.596;2022-09-06T11:10:51;27.40;99.90
19206;DHT22;59358;52.134;5.596;2022-09-06T11:13:22;27.30;99.90
19206;DHT22;59358;52.134;5.596;2022-09-06T11:15:53;27.30;99.90
19206;DHT22;59358;52.134;5.596;2022-09-06T11:18:26;27.50;99.90
19206;DHT22;59358;52.134;5.596;2022-09-06T11:21:11;27.50;99.90
19206;DHT22;59358;52.134;5.596;2022-09-06T11:23:47;27.50;99.90
19206;DHT22;59358;52.134;5.596;2022-09-06T11:26:30;27.40;99.90
19206;DHT22;59358;52.134;5.596;2022-09-06T11:29:00;27.40;99.90
19206;DHT22;59358;52.134;5.596;2022-09-06T11:31:29;27.80;99.90
19206;DHT22;59358;52.134;5.596;2022-09-06T11:34:05;27.80;99.90
19206;DHT22;59358;52.134;5.596;2022-09-06T11:36:35;27.20;99.90
19206;DHT22;59358;52.134;5.596;2022-09-06T11:39:05;27.30;99.90
19206;DHT22;59358;52.134;5.596;2022-09-06T11:41:34;27.40;99.90
19206;DHT22;59358;52.134;5.596;2022-09-06T11:44:03;27.00;99.90
19206;DHT22;59358;52.134;5.596;2022-09-06T11:46:59;27.30;99.90
19206;DHT22;59358;52.134;5.596;2022-09-06T11:49:30;27.90;99.90
19206;DHT22;59358;52.134;5.596;2022-09-06T11:51:58;28.10;99.90
19206;DHT22;59358;52.134;5.596;2022-09-06T11:54:40;27.80;99.90
19206;DHT22;59358;52.134;5.596;2022-09-06T11:57:13;27.60;99.90
19206;DHT22;59358;52.134;5.596;2022-09-06T11:59:53;28.10;99.90
19206;DHT22;59358;52.134;5.596;2022-09-06T12:02:38;27.80;99.90
19206;DHT22;59358;52.134;5.596;2022-09-06T12:05:27;27.70;99.90
19206;DHT22;59358;52.134;5.596;2022-09-06T12:08:23;27.70;99.90
19206;DHT22;59358;52.134;5.596;2022-09-06T12:10:59;28.10;99.90
19206;DHT22;59358;52.134;5.596;2022-09-06T12:13:46;28.30;99.90
19206;DHT22;59358;52.134;5.596;2022-09-06T12:16:15;28.30;99.90
19206;DHT22;59358;52.134;5.596;2022-09-06T12:19:00;28.50;99.90
19206;DHT22;59358;52.134;5.596;2022-09-06T12:21:44;28.40;99.90
19206;DHT22;59358;52.134;5.596;2022-09-06T12:24:51;28.30;99.90
19206;DHT22;59358;52.134;5.596;2022-09-06T12:27:19;28.70;99.90
19206;DHT22;59358;52.134;5.596;2022-09-06T12:29:52;28.50;99.90
19206;DHT22;59358;52.134;5.596;2022-09-06T12:32:26;28.70;99.90
19206;DHT22;59358;52.134;5.596;2022-09-06T12:34:54;28.80;99.90
19206;DHT22;59358;52.134;5.596;2022-09-06T12:37:52;28.60;99.90
19206;DHT22;59358;52.134;5.596;2022-09-06T12:40:20;28.40;99.90
19206;DHT22;59358;52.134;5.596;2022-09-06T12:42:48;28.50;99.90
19206;DHT22;59358;52.134;5.596;2022-09-06T12:45:17;28.60;99.90
19206;DHT22;59358;52.134;5.596;2022-09-06T12:47:46;28.90;99.90
19206;DHT22;59358;52.134;5.596;2022-09-06T12:50:15;29.00;99.90
19206;DHT22;59358;52.134;5.596;2022-09-06T12:52:47;29.10;99.90
19206;DHT22;59358;52.134;5.596;2022-09-06T12:55:19;29.00;99.90
19206;DHT22;59358;52.134;5.596;2022-09-06T12:57:47;29.00;99.90
19206;DHT22;59358;52.134;5.596;2022-09-06T13:00:16;29.00;99.90
19206;DHT22;59358;52.134;5.596;2022-09-06T13:02:51;28.50;99.90
19206;DHT22;59358;52.134;5.596;2022-09-06T13:05:20;28.60;99.90
19206;DHT22;59358;52.134;5.596;2022-09-06T13:07:50;28.70;99.90
19206;DHT22;59358;52.134;5.596;2022-09-06T13:10:21;28.80;99.90
19206;DHT22;59358;52.134;5.596;2022-09-06T13:12:50;29.00;99.90
19206;DHT22;59358;52.134;5.596;2022-09-06T13:15:19;29.00;99.90
19206;DHT22;59358;52.134;5.596;2022-09-06T13:17:49;29.20;99.90
19206;DHT22;59358;52.134;5.596;2022-09-06T13:20:23;29.20;99.40
19206;DHT22;59358;52.134;5.596;2022-09-06T13:23:05;29.20;99.70
19206;DHT22;59358;52.134;5.596;2022-09-06T13:25:32;29.30;99.00
19206;DHT22;59358;52.134;5.596;2022-09-06T13:27:59;29.30;99.80
19206;DHT22;59358;52.134;5.596;2022-09-06T13:30:36;29.30;98.80
19206;DHT22;59358;52.134;5.596;2022-09-06T13:33:07;29.30;98.30
19206;DHT22;59358;52.134;5.596;2022-09-06T13:35:44;29.30;98.50
19206;DHT22;59358;52.134;5.596;2022-09-06T13:38:32;29.30;97.90
19206;DHT22;59358;52.134;5.596;2022-09-06T13:41:00;29.20;97.90
19206;DHT22;59358;52.134;5.596;2022-09-06T13:43:27;29.40;97.60
19206;DHT22;59358;52.134;5.596;2022-09-06T13:46:05;29.10;98.70
19206;DHT22;59358;52.134;5.596;2022-09-06T13:48:33;29.20;98.30
19206;DHT22;59358;52.134;5.596;2022-09-06T13:51:05;29.50;98.60
19206;DHT22;59358;52.134;5.596;2022-09-06T13:53:34;29.60;98.70
19206;DHT22;59358;52.134;5.596;2022-09-06T13:56:02;29.70;97.70
19206;DHT22;59358;52.134;5.596;2022-09-06T13:58:29;29.40;97.10
19206;DHT22;59358;52.134;5.596;2022-09-06T14:00:57;29.40;96.80
19206;DHT22;59358;52.134;5.596;2022-09-06T14:03:26;29.60;97.20
19206;DHT22;59358;52.134;5.596;2022-09-06T14:05:54;29.40;96.80
19206;DHT22;59358;52.134;5.596;2022-09-06T14:08:21;29.80;97.60
19206;DHT22;59358;52.134;5.596;2022-09-06T14:10:53;29.40;97.50
19206;DHT22;59358;52.134;5.596;2022-09-06T14:13:26;29.40;97.60
19206;DHT22;59358;52.134;5.596;2022-09-06T14:15:56;29.60;97.40
19206;DHT22;59358;52.134;5.596;2022-09-06T14:18:29;29.80;96.70
19206;DHT22;59358;52.134;5.596;2022-09-06T14:20:58;29.70;96.70
19206;DHT22;59358;52.134;5.596;2022-09-06T14:23:26;29.70;97.00
19206;DHT22;59358;52.134;5.596;2022-09-06T14:25:56;29.90;95.80
19206;DHT22;59358;52.134;5.596;2022-09-06T14:28:26;29.90;95.30
19206;DHT22;59358;52.134;5.596;2022-09-06T14:30:57;30.20;96.00
19206;DHT22;59358;52.134;5.596;2022-09-06T14:33:27;30.10;95.30
19206;DHT22;59358;52.134;5.596;2022-09-06T14:36:04;30.00;95.40
19206;DHT22;59358;52.134;5.596;2022-09-06T14:38:40;29.80;95.00
19206;DHT22;59358;52.134;5.596;2022-09-06T14:41:16;29.80;95.60
19206;DHT22;59358;52.134;5.596;2022-09-06T14:43:57;29.90;95.80
19206;DHT22;59358;52.134;5.596;2022-09-06T14:46:27;30.20;95.40
19206;DHT22;59358;52.134;5.596;2022-09-06T14:48:56;30.40;95.00
19206;DHT22;59358;52.134;5.596;2022-09-06T14:51:24;30.20;95.20
19206;DHT22;59358;52.134;5.596;2022-09-06T14:53:56;30.20;94.60
19206;DHT22;59358;52.134;5.596;2022-09-06T14:56:28;30.40;94.80
19206;DHT22;59358;52.134;5.596;2022-09-06T14:58:57;30.90;95.50
19206;DHT22;59358;52.134;5.596;2022-09-06T15:01:27;31.20;93.90
19206;DHT22;59358;52.134;5.596;2022-09-06T15:03:56;31.40;93.50
19206;DHT22;59358;52.134;5.596;2022-09-06T15:06:30;31.00;92.70
19206;DHT22;59358;52.134;5.596;2022-09-06T15:09:04;31.30;93.70
19206;DHT22;59358;52.134;5.596;2022-09-06T15:11:37;32.50;91.50
19206;DHT22;59358;52.134;5.596;2022-09-06T15:14:18;32.80;91.20
19206;DHT22;59358;52.134;5.596;2022-09-06T15:16:48;32.80;91.00
19206;DHT22;59358;52.134;5.596;2022-09-06T15:19:21;33.40;90.30
19206;DHT22;59358;52.134;5.596;2022-09-06T15:21:50;34.50;89.60
19206;DHT22;59358;52.134;5.596;2022-09-06T15:24:25;34.40;88.20
19206;DHT22;59358;52.134;5.596;2022-09-06T15:26:54;33.80;87.70
19206;DHT22;59358;52.134;5.596;2022-09-06T15:29:22;32.80;90.20
19206;DHT22;59358;52.134;5.596;2022-09-06T15:31:49;33.50;88.60
19206;DHT22;59358;52.134;5.596;2022-09-06T15:34:17;33.60;88.10
19206;DHT22;59358;52.134;5.596;2022-09-06T15:36:44;33.70;88.20
19206;DHT22;59358;52.134;5.596;2022-09-06T15:39:14;33.00;89.20
19206;DHT22;59358;52.134;5.596;2022-09-06T15:41:41;32.80;90.30
19206;DHT22;59358;52.134;5.596;2022-09-06T15:44:12;33.30;88.60
19206;DHT22;59358;52.134;5.596;2022-09-06T15:46:45;32.80;90.00
19206;DHT22;59358;52.134;5.596;2022-09-06T15:49:14;32.70;90.20
19206;DHT22;59358;52.134;5.596;2022-09-06T15:51:42;32.50;90.10